MSR785 HECA-EDDF
Flight info
| Callsign | MSR785 |
|---|---|
| Flight time | N/A |
| Altitude | 38000 |
| Route | MENKU L617 NOZ L551 ANTAR DCT RIGRO DCT FSK UL608 DISOR DCT LONTA UL608 DOLEV DCT LURID/N0484F400 DCT ZAG DCT BEDOX DCT SIMBA DCT AKINI T161 DEBHI SPESA5C |
| Aircraft | B77W/H-SDE1E2E3FGHIJ2J3J4J5M1RWXY/LB1D1 |
Departure
| Time | 2026-05-01 10:38 |
|---|---|
| Airport | Cairo International Airport (HECA) |
Arrival
| Time | N/A |
|---|---|
| Airport | Frankfurt Main Airport (EDDF) |
| Time | Latitude | Longitude | Altitude | Speed | Heading |
|---|---|---|---|---|---|
| 2026-05-01 10:03 | 30.10749 | 31.39712 | 393 ft | 0 kts | 255° |
| 2026-05-01 10:27 | 30.10753 | 31.39730 | 393 ft | 2 kts | 252° |
| 2026-05-01 10:28 | 30.10757 | 31.39742 | 393 ft | 2 kts | 253° |
| 2026-05-01 10:28 | 30.10779 | 31.39773 | 393 ft | 2 kts | 201° |
| 2026-05-01 10:28 | 30.10797 | 31.39777 | 393 ft | 2 kts | 178° |
| 2026-05-01 10:29 | 30.10810 | 31.39774 | 393 ft | 0 kts | 164° |
| 2026-05-01 10:33 | 30.10741 | 31.39796 | 393 ft | 11 kts | 165° |
| 2026-05-01 10:34 | 30.10640 | 31.39825 | 393 ft | 16 kts | 165° |
| 2026-05-01 10:34 | 30.10528 | 31.39859 | 393 ft | 16 kts | 165° |
| 2026-05-01 10:34 | 30.10420 | 31.39867 | 394 ft | 16 kts | 218° |
| 2026-05-01 10:35 | 30.10267 | 31.39667 | 394 ft | 16 kts | 229° |
| 2026-05-01 10:35 | 30.10187 | 31.39576 | 393 ft | 15 kts | 203° |
| 2026-05-01 10:35 | 30.10097 | 31.39620 | 394 ft | 14 kts | 137° |
| 2026-05-01 10:35 | 30.10067 | 31.39652 | 394 ft | 0 kts | 139° |
| 2026-05-01 10:36 | 30.10066 | 31.39653 | 394 ft | 1 kts | 139° |
| 2026-05-01 10:36 | 30.10032 | 31.39693 | 394 ft | 11 kts | 128° |
| 2026-05-01 10:36 | 30.10008 | 31.39807 | 394 ft | 18 kts | 81° |
| 2026-05-01 10:37 | 30.10074 | 31.39948 | 394 ft | 18 kts | 51° |
| 2026-05-01 10:37 | 30.10844 | 31.40953 | 395 ft | 154 kts | 54° |
| 2026-05-01 10:37 | 30.11630 | 31.42049 | 668 ft | 193 kts | 48° |
| 2026-05-01 10:38 | 30.12722 | 31.42951 | 1547 ft | 188 kts | 12° |
| 2026-05-01 10:38 | 30.13942 | 31.42902 | 2291 ft | 177 kts | 338° |
| 2026-05-01 10:38 | 30.14933 | 31.41841 | 2641 ft | 201 kts | 296° |
| 2026-05-01 10:38 | 30.15201 | 31.40126 | 3147 ft | 220 kts | 275° |
| 2026-05-01 10:39 | 30.15260 | 31.38218 | 3729 ft | 236 kts | 274° |
| 2026-05-01 10:39 | 30.15314 | 31.36185 | 4347 ft | 251 kts | 274° |
| 2026-05-01 10:39 | 30.15662 | 31.34199 | 4903 ft | 260 kts | 298° |
| 2026-05-01 10:39 | 30.16720 | 31.32541 | 5708 ft | 260 kts | 314° |
| 2026-05-01 10:40 | 30.18060 | 31.30999 | 6714 ft | 257 kts | 316° |